createdAt,value
2019-04-28T00:00:41.842Z,100.00
2019-04-28T00:03:29.632Z,100.00
2019-04-28T00:06:17.728Z,100.00
2019-04-28T00:09:07.026Z,100.00
2019-04-28T00:11:56.075Z,100.00
2019-04-28T00:14:44.693Z,100.00
2019-04-28T00:17:33.467Z,100.00
2019-04-28T00:20:31.141Z,100.00
2019-04-28T00:23:28.487Z,100.00
2019-04-28T00:26:31.061Z,100.00
2019-04-28T00:29:21.017Z,100.00
2019-04-28T00:32:11.234Z,100.00
2019-04-28T00:34:59.859Z,100.00
2019-04-28T00:37:48.630Z,100.00
2019-04-28T00:40:36.481Z,100.00
2019-04-28T00:43:24.290Z,100.00
2019-04-28T00:46:13.385Z,100.00
2019-04-28T00:49:02.205Z,100.00
2019-04-28T00:51:50.915Z,100.00
2019-04-28T00:54:39.208Z,100.00
2019-04-28T00:57:28.028Z,100.00
2019-04-28T01:00:17.928Z,100.00
2019-04-28T01:03:06.264Z,100.00
2019-04-28T01:05:54.813Z,100.00
2019-04-28T01:08:42.991Z,100.00
2019-04-28T01:11:31.646Z,100.00
2019-04-28T01:14:21.330Z,100.00
2019-04-28T01:17:21.072Z,100.00
2019-04-28T01:20:10.737Z,100.00
2019-04-28T01:23:00.474Z,100.00
2019-04-28T01:25:50.038Z,100.00
2019-04-28T01:28:39.777Z,100.00
2019-04-28T01:31:39.728Z,100.00
2019-04-28T01:34:27.307Z,100.00
2019-04-28T01:37:15.692Z,100.00
2019-04-28T01:40:04.026Z,100.00
2019-04-28T01:42:52.264Z,100.00
2019-04-28T01:45:41.607Z,100.00
2019-04-28T01:48:31.533Z,100.00
2019-04-28T01:51:20.880Z,100.00
2019-04-28T01:54:09.795Z,100.00
2019-04-28T01:57:00.965Z,100.00
2019-04-28T01:59:49.987Z,100.00
2019-04-28T02:02:40.644Z,100.00
2019-04-28T02:05:29.541Z,100.00
2019-04-28T02:08:17.549Z,100.00
2019-04-28T02:11:06.343Z,100.00
2019-04-28T02:13:54.093Z,100.00
2019-04-28T02:16:42.450Z,100.00
2019-04-28T02:19:33.001Z,100.00
2019-04-28T02:22:31.866Z,100.00
2019-04-28T02:25:21.407Z,100.00
2019-04-28T02:28:11.741Z,100.00
2019-04-28T02:31:02.085Z,100.00
2019-04-28T02:33:50.494Z,100.00
2019-04-28T02:36:40.831Z,100.00
2019-04-28T02:39:31.168Z,100.00
2019-04-28T02:42:20.911Z,100.00
2019-04-28T02:45:11.295Z,100.00
2019-04-28T02:48:02.104Z,100.00
2019-04-28T02:51:11.388Z,100.00
2019-04-28T02:54:00.594Z,100.00
2019-04-28T02:56:51.025Z,100.00
2019-04-28T02:59:40.971Z,100.00
2019-04-28T03:02:28.579Z,100.00
2019-04-28T03:05:17.601Z,100.00
2019-04-28T03:08:05.891Z,100.00
2019-04-28T03:10:54.402Z,100.00
2019-04-28T03:13:42.814Z,100.00
2019-04-28T03:16:31.307Z,100.00
2019-04-28T03:19:21.128Z,100.00
2019-04-28T03:22:11.239Z,100.00
2019-04-28T03:25:00.892Z,100.00
2019-04-28T03:28:05.617Z,100.00
2019-04-28T03:32:07.468Z,100.00
2019-04-28T03:34:23.411Z,100.00
2019-04-28T03:37:11.528Z,100.00
2019-04-28T03:40:00.520Z,100.00
2019-04-28T03:42:51.167Z,100.00
2019-04-28T03:45:43.381Z,100.00
2019-04-28T03:48:33.526Z,100.00
2019-04-28T03:51:21.222Z,100.00
2019-04-28T03:54:10.365Z,100.00
2019-04-28T03:57:01.337Z,100.00
2019-04-28T03:59:51.136Z,100.00
2019-04-28T04:02:41.347Z,100.00
2019-04-28T04:05:30.777Z,100.00
2019-04-28T04:08:21.000Z,100.00
2019-04-28T04:11:31.333Z,100.00
2019-04-28T04:14:56.609Z,100.00
2019-04-28T04:18:11.025Z,100.00
2019-04-28T04:21:00.788Z,100.00
2019-04-28T04:23:50.763Z,100.00
2019-04-28T04:26:40.710Z,100.00
2019-04-28T04:29:27.564Z,100.00
2019-04-28T04:32:23.312Z,100.00
2019-04-28T04:35:05.843Z,100.00
2019-04-28T04:37:54.560Z,100.00
2019-04-28T04:40:42.444Z,100.00
2019-04-28T04:43:31.053Z,100.00
2019-04-28T04:46:23.576Z,100.00
2019-04-28T04:49:11.084Z,100.00
2019-04-28T04:52:00.431Z,100.00
2019-04-28T04:54:51.046Z,100.00
2019-04-28T04:57:37.888Z,100.00
2019-04-28T05:00:36.977Z,100.00
2019-04-28T05:03:29.718Z,100.00
2019-04-28T05:06:36.066Z,100.00
2019-04-28T05:09:24.284Z,100.00
2019-04-28T05:12:12.599Z,100.00
2019-04-28T05:15:01.660Z,100.00
2019-04-28T05:17:50.355Z,100.00
2019-04-28T05:20:40.411Z,100.00
2019-04-28T05:23:56.157Z,100.00
2019-04-28T05:26:47.545Z,100.00
2019-04-28T05:29:34.406Z,100.00
2019-04-28T05:32:23.047Z,100.00
2019-04-28T05:35:11.850Z,100.00
2019-04-28T05:38:01.152Z,100.00
2019-04-28T05:40:50.105Z,100.00
2019-04-28T05:43:40.408Z,100.00
2019-04-28T05:46:29.995Z,100.00
2019-04-28T05:49:32.848Z,100.00
2019-04-28T05:52:41.676Z,100.00
2019-04-28T05:55:39.346Z,100.00
2019-04-28T05:58:50.430Z,100.00
2019-04-28T06:01:56.943Z,100.00
2019-04-28T06:04:45.265Z,100.00
2019-04-28T06:07:50.341Z,100.00
2019-04-28T06:10:40.930Z,100.00
2019-04-28T06:13:30.277Z,100.00
2019-04-28T06:16:19.578Z,100.00
2019-04-28T06:19:09.767Z,100.00
2019-04-28T06:21:57.587Z,100.00
2019-04-28T06:24:45.553Z,94.38
2019-04-28T06:27:33.587Z,90.54
2019-04-28T06:30:21.721Z,89.62
2019-04-28T06:33:10.700Z,89.67
2019-04-28T06:36:00.260Z,90.41
2019-04-28T06:38:49.598Z,89.17
2019-04-28T06:41:37.760Z,88.44
2019-04-28T06:44:25.936Z,87.36
2019-04-28T06:47:16.786Z,88.85
2019-04-28T06:50:04.808Z,86.24
2019-04-28T06:52:56.609Z,83.34
2019-04-28T06:55:45.060Z,86.26
2019-04-28T06:58:33.493Z,83.74
2019-04-28T07:01:22.204Z,84.31
2019-04-28T07:04:15.889Z,81.99
2019-04-28T07:07:04.736Z,81.12
2019-04-28T07:09:52.391Z,81.32
2019-04-28T07:12:41.126Z,77.00
2019-04-28T07:15:35.420Z,77.02
2019-04-28T07:18:23.607Z,66.82
2019-04-28T07:21:29.660Z,60.06
2019-04-28T07:24:18.319Z,59.08
2019-04-28T07:27:07.868Z,56.75
2019-04-28T07:29:56.327Z,60.10
2019-04-28T07:32:44.947Z,61.66
2019-04-28T07:35:33.634Z,57.53
2019-04-28T07:38:22.308Z,57.32
2019-04-28T07:41:11.283Z,57.90
2019-04-28T07:43:59.789Z,56.66
2019-04-28T07:46:47.579Z,56.16
2019-04-28T07:49:37.555Z,57.00
2019-04-28T07:52:40.333Z,57.26
2019-04-28T07:55:38.104Z,55.89
2019-04-28T07:58:25.718Z,56.96
2019-04-28T08:01:19.020Z,57.37
2019-04-28T08:04:07.023Z,57.41
2019-04-28T08:06:55.527Z,54.19
2019-04-28T08:09:44.141Z,53.35
2019-04-28T08:12:32.356Z,51.28
2019-04-28T08:15:20.582Z,51.10
2019-04-28T08:18:08.815Z,48.75
2019-04-28T08:20:56.771Z,47.87
2019-04-28T08:23:47.420Z,48.12
2019-04-28T08:26:37.557Z,46.23
2019-04-28T08:29:25.957Z,47.29
2019-04-28T08:32:23.918Z,43.42
2019-04-28T08:35:12.839Z,41.30
2019-04-28T08:38:02.273Z,41.36
2019-04-28T08:40:50.453Z,42.44
2019-04-28T08:43:38.635Z,35.84
2019-04-28T08:46:27.247Z,38.72
2019-04-28T08:49:15.745Z,36.41
2019-04-28T08:52:04.335Z,35.25
2019-04-28T08:54:52.758Z,35.63
2019-04-28T08:57:41.033Z,34.67
2019-04-28T09:00:29.510Z,34.71
2019-04-28T09:03:17.402Z,34.59
2019-04-28T09:06:06.912Z,36.22
2019-04-28T09:08:55.350Z,35.14
2019-04-28T09:11:43.856Z,35.70
2019-04-28T09:14:31.994Z,36.53
2019-04-28T09:17:19.870Z,35.95
2019-04-28T09:20:08.570Z,37.61
2019-04-28T09:22:57.083Z,38.31
2019-04-28T09:25:44.954Z,37.43
2019-04-28T09:28:33.683Z,38.36
2019-04-28T09:31:22.315Z,36.63
2019-04-28T09:34:10.996Z,37.89
2019-04-28T09:36:59.174Z,37.63
2019-04-28T09:39:57.918Z,37.68
2019-04-28T09:43:06.869Z,38.54
2019-04-28T09:45:57.529Z,36.71
2019-04-28T09:48:45.116Z,37.82
2019-04-28T09:51:33.302Z,38.18
2019-04-28T09:54:21.848Z,37.88
2019-04-28T09:57:10.047Z,38.09
2019-04-28T09:59:58.279Z,36.23
2019-04-28T10:02:46.044Z,35.23
2019-04-28T10:05:33.871Z,34.03
2019-04-28T10:08:23.148Z,36.51
2019-04-28T10:11:11.351Z,37.61
2019-04-28T10:13:59.416Z,38.86
2019-04-28T10:16:47.151Z,38.01
2019-04-28T10:19:36.348Z,38.91
2019-04-28T10:22:24.850Z,39.03
2019-04-28T10:25:13.729Z,39.37
2019-04-28T10:28:02.637Z,39.69
2019-04-28T10:30:51.065Z,40.02
2019-04-28T10:33:41.825Z,38.72
2019-04-28T10:36:31.455Z,39.40
2019-04-28T10:39:26.176Z,35.73
2019-04-28T10:42:14.126Z,37.60
2019-04-28T10:45:04.539Z,36.34
2019-04-28T10:47:52.304Z,38.10
2019-04-28T10:50:43.060Z,37.35
2019-04-28T10:53:31.020Z,38.54
2019-04-28T10:56:19.495Z,40.15
2019-04-28T10:59:07.934Z,37.39
2019-04-28T11:01:56.439Z,38.00
2019-04-28T11:05:08.442Z,40.29
2019-04-28T11:07:55.772Z,38.72
2019-04-28T11:10:44.271Z,35.40
2019-04-28T11:13:32.449Z,35.91
2019-04-28T11:16:23.579Z,37.09
2019-04-28T11:19:12.303Z,36.73
2019-04-28T11:22:00.520Z,38.30
2019-04-28T11:24:48.368Z,37.48
2019-04-28T11:27:36.960Z,37.50
2019-04-28T11:30:25.636Z,38.15
2019-04-28T11:33:35.503Z,37.93
2019-04-28T11:36:24.627Z,36.78
2019-04-28T11:39:17.451Z,38.35
2019-04-28T11:42:05.374Z,35.90
2019-04-28T11:44:53.786Z,34.74
2019-04-28T11:47:41.607Z,35.06
2019-04-28T11:50:30.447Z,34.83
2019-04-28T11:53:18.516Z,33.65
2019-04-28T11:56:06.062Z,34.72
2019-04-28T11:58:54.184Z,34.14
2019-04-28T12:01:42.404Z,33.36
2019-04-28T12:04:30.548Z,33.48
2019-04-28T12:07:18.978Z,33.76
2019-04-28T12:10:13.252Z,32.61
2019-04-28T12:13:23.920Z,33.79
2019-04-28T12:16:30.775Z,33.99
2019-04-28T12:19:26.811Z,33.81
2019-04-28T12:22:15.486Z,33.74
2019-04-28T12:25:04.360Z,33.51
2019-04-28T12:27:52.983Z,34.66
2019-04-28T12:30:41.215Z,34.30
2019-04-28T12:33:29.767Z,32.33
2019-04-28T12:36:18.493Z,31.99
2019-04-28T12:39:08.204Z,31.85
2019-04-28T12:41:56.748Z,31.19
2019-04-28T12:44:44.967Z,29.19
2019-04-28T12:47:33.166Z,29.19
2019-04-28T12:50:27.036Z,29.81
2019-04-28T12:53:16.247Z,28.80
2019-04-28T12:56:04.475Z,28.83
2019-04-28T12:58:55.009Z,28.91
2019-04-28T13:01:56.330Z,29.16
2019-04-28T13:04:48.347Z,29.42
2019-04-28T13:07:36.884Z,30.73
2019-04-28T13:10:24.989Z,29.62
2019-04-28T13:13:14.655Z,29.89
2019-04-28T13:16:03.185Z,30.57
2019-04-28T13:18:51.065Z,31.81
2019-04-28T13:21:39.689Z,30.74
2019-04-28T13:24:28.257Z,30.81
2019-04-28T13:27:19.508Z,31.02
2019-04-28T13:30:07.852Z,31.56
2019-04-28T13:32:56.336Z,32.16
2019-04-28T13:35:45.316Z,30.23
2019-04-28T13:38:33.929Z,28.68
2019-04-28T13:41:21.648Z,28.96
2019-04-28T13:44:13.183Z,28.79
2019-04-28T13:47:01.112Z,30.51
2019-04-28T13:49:58.776Z,31.36
2019-04-28T13:52:46.925Z,31.26
2019-04-28T13:56:03.675Z,28.48
2019-04-28T13:58:57.207Z,27.95
2019-04-28T14:02:02.014Z,26.49
2019-04-28T14:05:18.858Z,28.73
2019-04-28T14:08:06.877Z,27.18
2019-04-28T14:10:55.243Z,26.24
2019-04-28T14:13:43.467Z,25.71
2019-04-28T14:16:31.777Z,26.91
2019-04-28T14:19:19.675Z,25.21
2019-04-28T14:22:08.083Z,25.79
2019-04-28T14:24:56.215Z,25.48
2019-04-28T14:27:44.849Z,24.02
2019-04-28T14:30:33.481Z,22.11
2019-04-28T14:33:22.174Z,22.72
2019-04-28T14:36:10.274Z,25.49
2019-04-28T14:38:58.696Z,25.38
2019-04-28T14:41:46.528Z,24.81
2019-04-28T14:44:34.861Z,24.32
2019-04-28T14:47:23.000Z,24.34
2019-04-28T14:50:11.115Z,24.23
2019-04-28T14:52:59.235Z,24.12
2019-04-28T14:55:47.660Z,23.45
2019-04-28T14:58:36.006Z,24.64
2019-04-28T15:01:46.888Z,23.65
2019-04-28T15:04:52.835Z,25.29
2019-04-28T15:07:59.549Z,26.41
2019-04-28T15:10:56.652Z,26.00
2019-04-28T15:13:45.238Z,25.85
2019-04-28T15:16:34.019Z,29.64
2019-04-28T15:19:22.375Z,31.19
2019-04-28T15:22:10.385Z,32.16
2019-04-28T15:24:58.630Z,33.04
2019-04-28T15:27:47.045Z,33.50
2019-04-28T15:30:35.192Z,33.71
2019-04-28T15:33:23.922Z,32.69
2019-04-28T15:36:12.035Z,32.96
2019-04-28T15:39:00.536Z,33.88
2019-04-28T15:41:48.717Z,34.01
2019-04-28T15:44:36.772Z,34.38
2019-04-28T15:47:24.687Z,35.27
2019-04-28T15:50:13.323Z,35.43
2019-04-28T15:53:01.923Z,35.09
2019-04-28T15:56:05.707Z,35.21
2019-04-28T15:58:56.715Z,36.11
2019-04-28T16:01:44.306Z,36.37
2019-04-28T16:04:32.872Z,35.18
2019-04-28T16:07:25.222Z,36.17
2019-04-28T16:10:10.693Z,36.46
2019-04-28T16:12:58.855Z,36.49
2019-04-28T16:15:47.172Z,37.70
2019-04-28T16:18:35.394Z,38.62
2019-04-28T16:21:23.461Z,37.90
2019-04-28T16:24:12.056Z,37.96
2019-04-28T16:27:00.790Z,39.24
2019-04-28T16:29:52.225Z,40.38
2019-04-28T16:32:40.648Z,41.31
2019-04-28T16:35:29.229Z,42.19
2019-04-28T16:38:17.455Z,41.73
2019-04-28T16:41:09.230Z,41.51
2019-04-28T16:44:02.104Z,41.73
2019-04-28T16:46:50.588Z,42.04
2019-04-28T16:49:39.239Z,42.15
2019-04-28T16:52:27.003Z,42.91
2019-04-28T16:55:19.996Z,43.69
2019-04-28T16:58:28.291Z,44.11
2019-04-28T17:01:40.412Z,44.77
2019-04-28T17:04:31.172Z,44.33
2019-04-28T17:07:19.501Z,44.87
2019-04-28T17:10:07.795Z,45.54
2019-04-28T17:12:55.689Z,46.04
2019-04-28T17:15:43.615Z,46.50
2019-04-28T17:18:31.859Z,46.23
2019-04-28T17:21:19.922Z,46.56
2019-04-28T17:24:07.768Z,47.69
2019-04-28T17:26:56.049Z,48.55
2019-04-28T17:29:44.344Z,48.43
2019-04-28T17:32:32.720Z,48.99
2019-04-28T17:35:20.667Z,49.85
2019-04-28T17:38:09.504Z,50.64
2019-04-28T17:41:01.173Z,52.95
2019-04-28T17:43:49.131Z,55.96
2019-04-28T17:46:37.979Z,57.31
2019-04-28T17:49:33.641Z,58.38
2019-04-28T17:52:30.124Z,59.38
2019-04-28T17:55:19.709Z,59.94
2019-04-28T17:58:07.964Z,60.65
2019-04-28T18:01:15.292Z,60.34
2019-04-28T18:04:25.233Z,58.67
2019-04-28T18:07:17.449Z,59.36
2019-04-28T18:10:06.780Z,60.70
2019-04-28T18:13:00.583Z,61.29
2019-04-28T18:15:54.816Z,62.30
2019-04-28T18:18:45.708Z,62.07
2019-04-28T18:21:34.860Z,63.18
2019-04-28T18:24:24.578Z,63.12
2019-04-28T18:27:12.788Z,62.59
2019-04-28T18:30:01.593Z,63.00
2019-04-28T18:33:11.931Z,63.83
2019-04-28T18:36:08.145Z,64.24
2019-04-28T18:39:06.921Z,63.74
2019-04-28T18:42:10.836Z,64.99
2019-04-28T18:44:58.652Z,65.19
2019-04-28T18:47:47.170Z,65.40
2019-04-28T18:50:35.711Z,66.52
2019-04-28T18:53:24.220Z,67.69
2019-04-28T18:56:13.956Z,67.33
2019-04-28T18:59:02.405Z,66.17
2019-04-28T19:02:07.095Z,66.49
2019-04-28T19:04:55.863Z,62.00
2019-04-28T19:08:11.951Z,59.42
2019-04-28T19:11:09.513Z,60.25
2019-04-28T19:14:02.905Z,61.53
2019-04-28T19:17:22.691Z,61.38
2019-04-28T19:20:13.709Z,66.27
2019-04-28T19:23:02.097Z,71.60
2019-04-28T19:25:50.031Z,71.69
2019-04-28T19:28:38.240Z,72.05
2019-04-28T19:31:26.432Z,69.62
2019-04-28T19:34:15.150Z,69.73
2019-04-28T19:37:03.706Z,72.29
2019-04-28T19:39:52.251Z,73.90
2019-04-28T19:42:40.856Z,70.19
2019-04-28T19:45:30.240Z,71.27
2019-04-28T19:48:18.680Z,72.33
2019-04-28T19:51:07.224Z,72.73
2019-04-28T19:53:55.716Z,73.05
2019-04-28T19:56:53.480Z,72.96
2019-04-28T20:00:09.028Z,72.67
2019-04-28T20:02:56.977Z,70.42
2019-04-28T20:05:46.541Z,72.11
2019-04-28T20:08:34.408Z,74.82
2019-04-28T20:11:22.638Z,77.56
2019-04-28T20:14:11.184Z,77.57
2019-04-28T20:16:59.952Z,76.30
2019-04-28T20:19:48.392Z,77.33
2019-04-28T20:22:36.632Z,79.41
2019-04-28T20:25:26.388Z,83.72
2019-04-28T20:28:14.476Z,85.32
2019-04-28T20:31:02.668Z,86.06
2019-04-28T20:33:50.683Z,86.41
2019-04-28T20:36:57.012Z,86.76
2019-04-28T20:39:47.924Z,87.33
2019-04-28T20:42:43.741Z,83.92
2019-04-28T20:45:32.347Z,84.30
2019-04-28T20:48:20.619Z,83.73
2019-04-28T20:51:09.155Z,82.59
2019-04-28T20:53:57.609Z,80.96
2019-04-28T20:56:46.659Z,81.27
2019-04-28T20:59:34.666Z,81.45
2019-04-28T21:02:22.915Z,77.33
2019-04-28T21:05:11.776Z,84.95
2019-04-28T21:08:00.372Z,89.05
2019-04-28T21:10:47.917Z,89.52
2019-04-28T21:13:35.714Z,90.04
2019-04-28T21:16:24.187Z,88.36
2019-04-28T21:19:13.388Z,87.48
2019-04-28T21:22:01.758Z,87.86
2019-04-28T21:24:49.885Z,86.51
2019-04-28T21:27:38.297Z,84.52
2019-04-28T21:30:26.499Z,84.17
2019-04-28T21:33:14.716Z,83.57
2019-04-28T21:36:03.168Z,82.60
2019-04-28T21:38:51.618Z,81.54
2019-04-28T21:41:39.440Z,81.95
2019-04-28T21:44:41.331Z,81.08
2019-04-28T21:47:31.239Z,80.70
2019-04-28T21:50:19.424Z,87.75
2019-04-28T21:53:07.522Z,92.13
2019-04-28T21:55:56.276Z,91.53
2019-04-28T21:58:45.961Z,89.63
2019-04-28T22:01:33.990Z,89.39
2019-04-28T22:04:22.561Z,88.46
2019-04-28T22:07:11.049Z,87.49
2019-04-28T22:09:59.592Z,86.74
2019-04-28T22:12:48.132Z,86.05
2019-04-28T22:15:36.685Z,86.46
2019-04-28T22:18:25.196Z,87.18
2019-04-28T22:21:14.130Z,87.95
2019-04-28T22:24:17.372Z,88.73
2019-04-28T22:27:05.980Z,90.29
2019-04-28T22:29:54.291Z,90.42
2019-04-28T22:32:42.163Z,90.53
2019-04-28T22:35:30.665Z,89.88
2019-04-28T22:38:19.636Z,89.62
2019-04-28T22:41:07.996Z,89.36
2019-04-28T22:43:56.066Z,88.27
2019-04-28T22:46:46.522Z,87.81
2019-04-28T22:49:36.441Z,87.69
2019-04-28T22:52:24.469Z,86.41
2019-04-28T22:55:17.434Z,86.13
2019-04-28T22:58:39.524Z,88.48
2019-04-28T23:01:30.970Z,91.29
2019-04-28T23:04:25.795Z,97.87
2019-04-28T23:07:14.306Z,100.00
2019-04-28T23:10:02.239Z,98.31
2019-04-28T23:12:50.680Z,95.92
2019-04-28T23:15:39.169Z,94.48
2019-04-28T23:18:27.555Z,93.60
2019-04-28T23:21:30.499Z,95.90
2019-04-28T23:24:18.105Z,96.14
2019-04-28T23:27:06.548Z,94.36
2019-04-28T23:29:55.000Z,94.91
2019-04-28T23:32:43.092Z,93.03
2019-04-28T23:35:31.649Z,92.84
2019-04-28T23:38:19.911Z,96.40
2019-04-28T23:41:35.855Z,100.00
2019-04-28T23:44:24.216Z,98.52
2019-04-28T23:47:12.619Z,97.27
2019-04-28T23:50:00.376Z,97.18
2019-04-28T23:52:55.179Z,96.91
2019-04-28T23:55:43.698Z,95.81
2019-04-28T23:58:32.298Z,94.10
